sensor_id;sensor_type;location;lat;lon;timestamp;temperature;humidity
21312;DHT22;18076;52.154;10.570;2023-04-15T00:01:29;7.80;99.90
21312;DHT22;18076;52.154;10.570;2023-04-15T00:03:58;7.70;99.90
21312;DHT22;18076;52.154;10.570;2023-04-15T00:06:26;7.70;99.90
21312;DHT22;18076;52.154;10.570;2023-04-15T00:08:52;7.60;99.90
21312;DHT22;18076;52.154;10.570;2023-04-15T00:11:17;7.60;99.90
21312;DHT22;18076;52.154;10.570;2023-04-15T00:13:44;7.50;99.90
21312;DHT22;18076;52.154;10.570;2023-04-15T00:16:10;7.60;99.90
21312;DHT22;18076;52.154;10.570;2023-04-15T00:18:36;7.60;99.90
21312;DHT22;18076;52.154;10.570;2023-04-15T00:21:01;7.60;99.90
21312;DHT22;18076;52.154;10.570;2023-04-15T00:23:27;7.70;99.90
21312;DHT22;18076;52.154;10.570;2023-04-15T00:25:53;7.70;99.90
21312;DHT22;18076;52.154;10.570;2023-04-15T00:28:19;7.60;99.90
21312;DHT22;18076;52.154;10.570;2023-04-15T00:30:45;7.70;99.90
21312;DHT22;18076;52.154;10.570;2023-04-15T00:33:14;7.70;99.90
21312;DHT22;18076;52.154;10.570;2023-04-15T00:35:40;7.70;99.90
21312;DHT22;18076;52.154;10.570;2023-04-15T00:38:06;7.80;99.90
21312;DHT22;18076;52.154;10.570;2023-04-15T00:40:35;7.70;99.90
21312;DHT22;18076;52.154;10.570;2023-04-15T00:43:00;7.70;99.90
21312;DHT22;18076;52.154;10.570;2023-04-15T00:45:26;7.70;99.90
21312;DHT22;18076;52.154;10.570;2023-04-15T00:47:52;7.60;99.90
21312;DHT22;18076;52.154;10.570;2023-04-15T00:50:18;7.60;99.90
21312;DHT22;18076;52.154;10.570;2023-04-15T00:52:43;7.50;99.90
21312;DHT22;18076;52.154;10.570;2023-04-15T00:55:09;7.50;99.90
21312;DHT22;18076;52.154;10.570;2023-04-15T00:57:35;7.50;99.90
21312;DHT22;18076;52.154;10.570;2023-04-15T01:00:01;7.60;99.90
21312;DHT22;18076;52.154;10.570;2023-04-15T01:02:27;7.60;99.90
21312;DHT22;18076;52.154;10.570;2023-04-15T01:04:53;7.50;99.90
21312;DHT22;18076;52.154;10.570;2023-04-15T01:07:18;7.50;99.90
21312;DHT22;18076;52.154;10.570;2023-04-15T01:09:44;7.50;99.90
21312;DHT22;18076;52.154;10.570;2023-04-15T01:12:11;7.50;99.90
21312;DHT22;18076;52.154;10.570;2023-04-15T01:14:37;7.50;99.90
21312;DHT22;18076;52.154;10.570;2023-04-15T01:17:02;7.50;99.90
21312;DHT22;18076;52.154;10.570;2023-04-15T01:19:31;7.50;99.90
21312;DHT22;18076;52.154;10.570;2023-04-15T01:21:59;7.50;99.90
21312;DHT22;18076;52.154;10.570;2023-04-15T01:24:27;7.40;99.90
21312;DHT22;18076;52.154;10.570;2023-04-15T01:26:54;7.40;99.90
21312;DHT22;18076;52.154;10.570;2023-04-15T01:29:20;7.40;99.90
21312;DHT22;18076;52.154;10.570;2023-04-15T01:31:52;7.50;99.90
21312;DHT22;18076;52.154;10.570;2023-04-15T01:34:19;7.50;99.90
21312;DHT22;18076;52.154;10.570;2023-04-15T01:36:45;7.50;99.90
21312;DHT22;18076;52.154;10.570;2023-04-15T01:39:11;7.50;99.90
21312;DHT22;18076;52.154;10.570;2023-04-15T01:41:36;7.40;99.90
21312;DHT22;18076;52.154;10.570;2023-04-15T01:44:02;7.40;99.90
21312;DHT22;18076;52.154;10.570;2023-04-15T01:46:27;7.40;99.90
21312;DHT22;18076;52.154;10.570;2023-04-15T01:48:53;7.40;99.90
21312;DHT22;18076;52.154;10.570;2023-04-15T01:51:18;7.30;99.90
21312;DHT22;18076;52.154;10.570;2023-04-15T01:53:44;7.40;99.90
21312;DHT22;18076;52.154;10.570;2023-04-15T01:56:10;7.30;99.90
21312;DHT22;18076;52.154;10.570;2023-04-15T01:58:36;7.30;99.90
21312;DHT22;18076;52.154;10.570;2023-04-15T02:01:01;7.30;99.90
21312;DHT22;18076;52.154;10.570;2023-04-15T02:03:28;7.20;99.90
21312;DHT22;18076;52.154;10.570;2023-04-15T02:05:53;7.30;99.90
21312;DHT22;18076;52.154;10.570;2023-04-15T02:08:19;7.20;99.90
21312;DHT22;18076;52.154;10.570;2023-04-15T02:10:45;7.20;99.90
21312;DHT22;18076;52.154;10.570;2023-04-15T02:13:10;7.20;99.90
21312;DHT22;18076;52.154;10.570;2023-04-15T02:15:36;7.20;99.90
21312;DHT22;18076;52.154;10.570;2023-04-15T02:18:01;7.20;99.90
21312;DHT22;18076;52.154;10.570;2023-04-15T02:20:27;7.20;99.90
21312;DHT22;18076;52.154;10.570;2023-04-15T02:22:55;7.20;99.90
21312;DHT22;18076;52.154;10.570;2023-04-15T02:25:21;7.10;99.90
21312;DHT22;18076;52.154;10.570;2023-04-15T02:27:46;7.10;99.90
21312;DHT22;18076;52.154;10.570;2023-04-15T02:30:12;7.00;99.90
21312;DHT22;18076;52.154;10.570;2023-04-15T02:32:39;7.00;99.90
21312;DHT22;18076;52.154;10.570;2023-04-15T02:35:04;7.00;99.90
21312;DHT22;18076;52.154;10.570;2023-04-15T02:37:31;7.00;99.90
21312;DHT22;18076;52.154;10.570;2023-04-15T02:39:56;7.00;99.90
21312;DHT22;18076;52.154;10.570;2023-04-15T02:42:22;7.00;99.90
21312;DHT22;18076;52.154;10.570;2023-04-15T02:44:47;7.10;99.90
21312;DHT22;18076;52.154;10.570;2023-04-15T02:47:13;7.10;99.90
21312;DHT22;18076;52.154;10.570;2023-04-15T02:49:40;7.00;99.90
21312;DHT22;18076;52.154;10.570;2023-04-15T02:52:06;7.10;99.90
21312;DHT22;18076;52.154;10.570;2023-04-15T02:54:32;7.00;99.90
21312;DHT22;18076;52.154;10.570;2023-04-15T02:56:58;7.00;99.90
21312;DHT22;18076;52.154;10.570;2023-04-15T02:59:24;7.00;99.90
21312;DHT22;18076;52.154;10.570;2023-04-15T03:01:49;7.00;99.90
21312;DHT22;18076;52.154;10.570;2023-04-15T03:04:15;7.00;99.90
21312;DHT22;18076;52.154;10.570;2023-04-15T03:06:40;7.00;99.90
21312;DHT22;18076;52.154;10.570;2023-04-15T03:09:06;7.00;99.90
21312;DHT22;18076;52.154;10.570;2023-04-15T03:11:32;7.00;99.90
21312;DHT22;18076;52.154;10.570;2023-04-15T03:13:57;7.00;99.90
21312;DHT22;18076;52.154;10.570;2023-04-15T03:16:23;7.00;99.90
21312;DHT22;18076;52.154;10.570;2023-04-15T03:18:49;7.00;99.90
21312;DHT22;18076;52.154;10.570;2023-04-15T03:21:14;6.90;99.90
21312;DHT22;18076;52.154;10.570;2023-04-15T03:23:40;6.90;99.90
21312;DHT22;18076;52.154;10.570;2023-04-15T03:26:06;6.90;99.90
21312;DHT22;18076;52.154;10.570;2023-04-15T03:28:34;6.90;99.90
21312;DHT22;18076;52.154;10.570;2023-04-15T03:30:59;6.90;99.90
21312;DHT22;18076;52.154;10.570;2023-04-15T03:33:25;6.90;99.90
21312;DHT22;18076;52.154;10.570;2023-04-15T03:35:51;6.90;99.90
21312;DHT22;18076;52.154;10.570;2023-04-15T03:38:17;6.90;99.90
21312;DHT22;18076;52.154;10.570;2023-04-15T03:40:44;7.00;99.90
21312;DHT22;18076;52.154;10.570;2023-04-15T03:43:13;7.00;99.90
21312;DHT22;18076;52.154;10.570;2023-04-15T03:45:39;6.90;99.90
21312;DHT22;18076;52.154;10.570;2023-04-15T03:48:04;6.90;99.90
21312;DHT22;18076;52.154;10.570;2023-04-15T03:50:30;6.90;99.90
21312;DHT22;18076;52.154;10.570;2023-04-15T03:52:56;6.90;99.90
21312;DHT22;18076;52.154;10.570;2023-04-15T03:55:21;6.80;99.90
21312;DHT22;18076;52.154;10.570;2023-04-15T03:57:47;6.80;99.90
21312;DHT22;18076;52.154;10.570;2023-04-15T04:00:13;6.80;99.90
21312;DHT22;18076;52.154;10.570;2023-04-15T04:02:38;6.90;99.90
21312;DHT22;18076;52.154;10.570;2023-04-15T04:05:04;6.90;99.90
21312;DHT22;18076;52.154;10.570;2023-04-15T04:07:29;6.90;99.90
21312;DHT22;18076;52.154;10.570;2023-04-15T04:09:56;6.80;99.90
21312;DHT22;18076;52.154;10.570;2023-04-15T04:12:21;6.80;99.90
21312;DHT22;18076;52.154;10.570;2023-04-15T04:14:47;6.80;99.90
21312;DHT22;18076;52.154;10.570;2023-04-15T04:17:12;6.90;99.90
21312;DHT22;18076;52.154;10.570;2023-04-15T04:19:38;6.80;99.90
21312;DHT22;18076;52.154;10.570;2023-04-15T04:22:03;6.80;99.90
21312;DHT22;18076;52.154;10.570;2023-04-15T04:24:29;6.90;99.90
21312;DHT22;18076;52.154;10.570;2023-04-15T04:26:55;6.80;99.90
21312;DHT22;18076;52.154;10.570;2023-04-15T04:29:21;6.80;99.90
21312;DHT22;18076;52.154;10.570;2023-04-15T04:31:46;6.90;99.90
21312;DHT22;18076;52.154;10.570;2023-04-15T04:34:13;6.80;99.90
21312;DHT22;18076;52.154;10.570;2023-04-15T04:36:38;6.80;99.90
21312;DHT22;18076;52.154;10.570;2023-04-15T04:39:04;6.80;99.90
21312;DHT22;18076;52.154;10.570;2023-04-15T04:41:29;6.80;99.90
21312;DHT22;18076;52.154;10.570;2023-04-15T04:43:56;6.90;99.90
21312;DHT22;18076;52.154;10.570;2023-04-15T04:46:22;6.80;99.90
21312;DHT22;18076;52.154;10.570;2023-04-15T04:48:48;6.80;99.90
21312;DHT22;18076;52.154;10.570;2023-04-15T04:51:13;6.80;99.90
21312;DHT22;18076;52.154;10.570;2023-04-15T04:53:39;6.80;99.90
21312;DHT22;18076;52.154;10.570;2023-04-15T04:56:05;6.80;99.90
21312;DHT22;18076;52.154;10.570;2023-04-15T04:58:30;6.80;99.90
21312;DHT22;18076;52.154;10.570;2023-04-15T05:00:56;6.80;99.90
21312;DHT22;18076;52.154;10.570;2023-04-15T05:03:22;6.90;99.90
21312;DHT22;18076;52.154;10.570;2023-04-15T05:05:48;6.80;99.90
21312;DHT22;18076;52.154;10.570;2023-04-15T05:08:14;6.80;99.90
21312;DHT22;18076;52.154;10.570;2023-04-15T05:10:39;6.80;99.90
21312;DHT22;18076;52.154;10.570;2023-04-15T05:13:05;6.80;99.90
21312;DHT22;18076;52.154;10.570;2023-04-15T05:15:30;6.80;99.90
21312;DHT22;18076;52.154;10.570;2023-04-15T05:17:57;6.80;99.90
21312;DHT22;18076;52.154;10.570;2023-04-15T05:20:22;6.80;99.90
21312;DHT22;18076;52.154;10.570;2023-04-15T05:22:48;6.90;99.90
21312;DHT22;18076;52.154;10.570;2023-04-15T05:25:13;6.90;99.90
21312;DHT22;18076;52.154;10.570;2023-04-15T05:27:39;6.90;99.90
21312;DHT22;18076;52.154;10.570;2023-04-15T05:30:05;6.90;99.90
21312;DHT22;18076;52.154;10.570;2023-04-15T05:32:31;6.80;99.90
21312;DHT22;18076;52.154;10.570;2023-04-15T05:34:59;6.90;99.90
21312;DHT22;18076;52.154;10.570;2023-04-15T05:37:24;6.90;99.90
21312;DHT22;18076;52.154;10.570;2023-04-15T05:39:50;6.90;99.90
21312;DHT22;18076;52.154;10.570;2023-04-15T05:42:16;6.90;99.90
21312;DHT22;18076;52.154;10.570;2023-04-15T05:44:41;6.90;99.90
21312;DHT22;18076;52.154;10.570;2023-04-15T05:47:07;6.80;99.90
21312;DHT22;18076;52.154;10.570;2023-04-15T05:49:33;6.80;99.90
21312;DHT22;18076;52.154;10.570;2023-04-15T05:51:59;6.90;99.90
21312;DHT22;18076;52.154;10.570;2023-04-15T05:54:25;6.90;99.90
21312;DHT22;18076;52.154;10.570;2023-04-15T05:56:52;6.90;99.90
21312;DHT22;18076;52.154;10.570;2023-04-15T05:59:17;6.90;99.90
21312;DHT22;18076;52.154;10.570;2023-04-15T06:01:43;6.90;99.90
21312;DHT22;18076;52.154;10.570;2023-04-15T06:04:09;6.90;99.90
21312;DHT22;18076;52.154;10.570;2023-04-15T06:06:35;6.80;99.90
21312;DHT22;18076;52.154;10.570;2023-04-15T06:09:01;6.80;99.90
21312;DHT22;18076;52.154;10.570;2023-04-15T06:11:27;6.90;99.90
21312;DHT22;18076;52.154;10.570;2023-04-15T06:13:52;6.90;99.90
21312;DHT22;18076;52.154;10.570;2023-04-15T06:16:18;6.90;99.90
21312;DHT22;18076;52.154;10.570;2023-04-15T06:18:43;6.90;99.90
21312;DHT22;18076;52.154;10.570;2023-04-15T06:21:09;6.90;99.90
21312;DHT22;18076;52.154;10.570;2023-04-15T06:23:35;6.90;99.90
21312;DHT22;18076;52.154;10.570;2023-04-15T06:26:04;6.90;99.90
21312;DHT22;18076;52.154;10.570;2023-04-15T06:28:30;7.00;99.90
21312;DHT22;18076;52.154;10.570;2023-04-15T06:30:56;7.00;99.90
21312;DHT22;18076;52.154;10.570;2023-04-15T06:33:21;7.00;99.90
21312;DHT22;18076;52.154;10.570;2023-04-15T06:35:47;7.00;99.90
21312;DHT22;18076;52.154;10.570;2023-04-15T06:38:13;7.10;99.90
21312;DHT22;18076;52.154;10.570;2023-04-15T06:40:39;7.10;99.90
21312;DHT22;18076;52.154;10.570;2023-04-15T06:43:05;7.10;99.90
21312;DHT22;18076;52.154;10.570;2023-04-15T06:45:30;7.10;99.90
21312;DHT22;18076;52.154;10.570;2023-04-15T06:47:56;7.20;99.90
21312;DHT22;18076;52.154;10.570;2023-04-15T06:50:22;7.20;99.90
21312;DHT22;18076;52.154;10.570;2023-04-15T06:52:48;7.20;99.90
21312;DHT22;18076;52.154;10.570;2023-04-15T06:55:14;7.30;99.90
21312;DHT22;18076;52.154;10.570;2023-04-15T06:57:39;7.30;99.90
21312;DHT22;18076;52.154;10.570;2023-04-15T07:00:05;7.30;99.90
21312;DHT22;18076;52.154;10.570;2023-04-15T07:02:31;7.30;99.90
21312;DHT22;18076;52.154;10.570;2023-04-15T07:04:57;7.30;99.90
21312;DHT22;18076;52.154;10.570;2023-04-15T07:07:23;7.30;99.90
21312;DHT22;18076;52.154;10.570;2023-04-15T07:09:48;7.40;99.90
21312;DHT22;18076;52.154;10.570;2023-04-15T07:12:14;7.30;99.90
21312;DHT22;18076;52.154;10.570;2023-04-15T07:14:40;7.30;99.90
21312;DHT22;18076;52.154;10.570;2023-04-15T07:17:05;7.40;99.90
21312;DHT22;18076;52.154;10.570;2023-04-15T07:19:31;7.40;99.90
21312;DHT22;18076;52.154;10.570;2023-04-15T07:21:57;7.30;99.90
21312;DHT22;18076;52.154;10.570;2023-04-15T07:24:23;7.30;99.90
21312;DHT22;18076;52.154;10.570;2023-04-15T07:26:52;7.30;99.90
21312;DHT22;18076;52.154;10.570;2023-04-15T07:29:17;7.30;99.90
21312;DHT22;18076;52.154;10.570;2023-04-15T07:31:43;7.40;99.90
21312;DHT22;18076;52.154;10.570;2023-04-15T07:34:09;7.40;99.90
21312;DHT22;18076;52.154;10.570;2023-04-15T07:36:35;7.40;99.90
21312;DHT22;18076;52.154;10.570;2023-04-15T07:39:01;7.40;99.90
21312;DHT22;18076;52.154;10.570;2023-04-15T07:41:35;7.40;99.90
21312;DHT22;18076;52.154;10.570;2023-04-15T07:44:05;7.40;99.90
21312;DHT22;18076;52.154;10.570;2023-04-15T07:46:30;7.40;99.90
21312;DHT22;18076;52.154;10.570;2023-04-15T07:48:56;7.50;99.90
21312;DHT22;18076;52.154;10.570;2023-04-15T07:51:22;7.50;99.90
21312;DHT22;18076;52.154;10.570;2023-04-15T07:53:48;7.50;99.90
21312;DHT22;18076;52.154;10.570;2023-04-15T07:56:14;7.50;99.90
21312;DHT22;18076;52.154;10.570;2023-04-15T07:58:40;7.60;99.90
21312;DHT22;18076;52.154;10.570;2023-04-15T08:01:08;7.50;99.90
21312;DHT22;18076;52.154;10.570;2023-04-15T08:03:33;7.50;99.90
21312;DHT22;18076;52.154;10.570;2023-04-15T08:05:59;7.50;99.90
21312;DHT22;18076;52.154;10.570;2023-04-15T08:08:25;7.50;99.90
21312;DHT22;18076;52.154;10.570;2023-04-15T08:10:51;7.50;99.90
21312;DHT22;18076;52.154;10.570;2023-04-15T08:13:17;7.50;99.90
21312;DHT22;18076;52.154;10.570;2023-04-15T08:15:43;7.50;99.90
21312;DHT22;18076;52.154;10.570;2023-04-15T08:18:08;7.60;99.90
21312;DHT22;18076;52.154;10.570;2023-04-15T08:20:37;7.60;99.90
21312;DHT22;18076;52.154;10.570;2023-04-15T08:23:03;7.60;99.90
21312;DHT22;18076;52.154;10.570;2023-04-15T08:25:29;7.60;99.90
21312;DHT22;18076;52.154;10.570;2023-04-15T08:27:55;7.60;99.90
21312;DHT22;18076;52.154;10.570;2023-04-15T08:30:22;7.60;99.90
21312;DHT22;18076;52.154;10.570;2023-04-15T08:32:49;7.70;99.90
21312;DHT22;18076;52.154;10.570;2023-04-15T08:35:15;7.80;99.90
21312;DHT22;18076;52.154;10.570;2023-04-15T08:37:41;7.80;99.90
21312;DHT22;18076;52.154;10.570;2023-04-15T08:40:10;7.80;99.90
21312;DHT22;18076;52.154;10.570;2023-04-15T08:42:40;7.80;99.90
21312;DHT22;18076;52.154;10.570;2023-04-15T08:48:13;7.90;99.90
21312;DHT22;18076;52.154;10.570;2023-04-15T08:51:02;7.90;99.90
21312;DHT22;18076;52.154;10.570;2023-04-15T08:53:51;7.90;99.90
21312;DHT22;18076;52.154;10.570;2023-04-15T08:59:26;8.00;99.90
21312;DHT22;18076;52.154;10.570;2023-04-15T09:01:56;8.00;99.90
21312;DHT22;18076;52.154;10.570;2023-04-15T09:04:25;7.90;99.90
21312;DHT22;18076;52.154;10.570;2023-04-15T09:06:52;7.90;99.90
21312;DHT22;18076;52.154;10.570;2023-04-15T09:09:17;8.00;99.90
21312;DHT22;18076;52.154;10.570;2023-04-15T09:11:43;8.00;99.90
21312;DHT22;18076;52.154;10.570;2023-04-15T09:14:14;8.00;99.90
21312;DHT22;18076;52.154;10.570;2023-04-15T09:16:55;8.00;99.90
21312;DHT22;18076;52.154;10.570;2023-04-15T09:19:22;8.00;99.90
21312;DHT22;18076;52.154;10.570;2023-04-15T09:21:47;8.10;99.90
21312;DHT22;18076;52.154;10.570;2023-04-15T09:24:13;8.10;99.90
21312;DHT22;18076;52.154;10.570;2023-04-15T09:26:39;8.20;99.90
21312;DHT22;18076;52.154;10.570;2023-04-15T09:29:08;8.20;99.90
21312;DHT22;18076;52.154;10.570;2023-04-15T09:31:38;8.30;99.90
21312;DHT22;18076;52.154;10.570;2023-04-15T09:34:04;8.30;99.90
21312;DHT22;18076;52.154;10.570;2023-04-15T09:36:37;8.30;99.90
21312;DHT22;18076;52.154;10.570;2023-04-15T09:39:03;8.30;99.90
21312;DHT22;18076;52.154;10.570;2023-04-15T09:41:29;8.40;99.90
21312;DHT22;18076;52.154;10.570;2023-04-15T09:43:54;8.40;99.90
21312;DHT22;18076;52.154;10.570;2023-04-15T09:46:20;8.40;99.90
21312;DHT22;18076;52.154;10.570;2023-04-15T09:49:08;8.40;99.90
21312;DHT22;18076;52.154;10.570;2023-04-15T09:51:34;8.50;99.90
21312;DHT22;18076;52.154;10.570;2023-04-15T09:54:00;8.40;99.90
21312;DHT22;18076;52.154;10.570;2023-04-15T09:56:31;8.40;99.90
21312;DHT22;18076;52.154;10.570;2023-04-15T09:58:56;8.50;99.90
21312;DHT22;18076;52.154;10.570;2023-04-15T10:01:22;8.50;99.90
21312;DHT22;18076;52.154;10.570;2023-04-15T10:03:47;8.50;99.90
21312;DHT22;18076;52.154;10.570;2023-04-15T10:06:13;8.40;99.90
21312;DHT22;18076;52.154;10.570;2023-04-15T10:08:39;8.40;99.90
21312;DHT22;18076;52.154;10.570;2023-04-15T10:11:05;8.40;99.90
21312;DHT22;18076;52.154;10.570;2023-04-15T10:13:32;8.40;99.90
21312;DHT22;18076;52.154;10.570;2023-04-15T10:16:08;8.50;99.90
21312;DHT22;18076;52.154;10.570;2023-04-15T10:18:35;8.50;99.90
21312;DHT22;18076;52.154;10.570;2023-04-15T10:21:02;8.50;99.90
21312;DHT22;18076;52.154;10.570;2023-04-15T10:23:28;8.50;99.90
21312;DHT22;18076;52.154;10.570;2023-04-15T10:25:54;8.50;99.90
21312;DHT22;18076;52.154;10.570;2023-04-15T10:28:20;8.60;99.90
21312;DHT22;18076;52.154;10.570;2023-04-15T10:30:49;8.60;99.90
21312;DHT22;18076;52.154;10.570;2023-04-15T10:33:18;8.60;99.90
21312;DHT22;18076;52.154;10.570;2023-04-15T10:35:44;8.50;99.90
21312;DHT22;18076;52.154;10.570;2023-04-15T10:41:10;8.60;99.90
21312;DHT22;18076;52.154;10.570;2023-04-15T10:43:36;8.60;99.90
21312;DHT22;18076;52.154;10.570;2023-04-15T10:46:04;8.60;99.90
21312;DHT22;18076;52.154;10.570;2023-04-15T10:48:29;8.60;99.90
21312;DHT22;18076;52.154;10.570;2023-04-15T10:50:55;8.60;99.90
21312;DHT22;18076;52.154;10.570;2023-04-15T10:53:28;8.60;99.90
21312;DHT22;18076;52.154;10.570;2023-04-15T10:55:55;8.60;99.90
21312;DHT22;18076;52.154;10.570;2023-04-15T10:58:24;8.50;99.90
21312;DHT22;18076;52.154;10.570;2023-04-15T11:00:51;8.50;99.90
21312;DHT22;18076;52.154;10.570;2023-04-15T11:03:33;8.50;99.90
21312;DHT22;18076;52.154;10.570;2023-04-15T11:06:00;8.60;99.90
21312;DHT22;18076;52.154;10.570;2023-04-15T11:11:10;8.70;99.90
21312;DHT22;18076;52.154;10.570;2023-04-15T11:13:36;8.70;99.90
21312;DHT22;18076;52.154;10.570;2023-04-15T11:16:11;8.80;99.90
21312;DHT22;18076;52.154;10.570;2023-04-15T11:18:37;8.80;99.90
21312;DHT22;18076;52.154;10.570;2023-04-15T11:21:04;8.70;99.90
21312;DHT22;18076;52.154;10.570;2023-04-15T11:23:31;8.70;99.90
21312;DHT22;18076;52.154;10.570;2023-04-15T11:25:58;8.80;99.90
21312;DHT22;18076;52.154;10.570;2023-04-15T11:28:24;8.80;99.90
21312;DHT22;18076;52.154;10.570;2023-04-15T11:30:50;8.70;99.90
21312;DHT22;18076;52.154;10.570;2023-04-15T11:33:16;8.70;99.90
21312;DHT22;18076;52.154;10.570;2023-04-15T11:35:42;8.80;99.90
21312;DHT22;18076;52.154;10.570;2023-04-15T11:38:11;8.80;99.90
21312;DHT22;18076;52.154;10.570;2023-04-15T11:40:38;8.80;99.90
21312;DHT22;18076;52.154;10.570;2023-04-15T11:43:08;8.80;99.90
21312;DHT22;18076;52.154;10.570;2023-04-15T11:45:34;8.80;99.90
21312;DHT22;18076;52.154;10.570;2023-04-15T11:50:32;8.80;99.90
21312;DHT22;18076;52.154;10.570;2023-04-15T11:52:59;8.80;99.90
21312;DHT22;18076;52.154;10.570;2023-04-15T11:55:25;8.80;99.90
21312;DHT22;18076;52.154;10.570;2023-04-15T11:58:10;8.80;99.90
21312;DHT22;18076;52.154;10.570;2023-04-15T12:00:36;8.80;99.90
21312;DHT22;18076;52.154;10.570;2023-04-15T12:03:22;8.80;99.90
21312;DHT22;18076;52.154;10.570;2023-04-15T12:06:22;8.90;99.90
21312;DHT22;18076;52.154;10.570;2023-04-15T12:11:13;8.90;99.90
21312;DHT22;18076;52.154;10.570;2023-04-15T12:13:42;8.90;99.90
21312;DHT22;18076;52.154;10.570;2023-04-15T12:16:08;8.90;99.90
21312;DHT22;18076;52.154;10.570;2023-04-15T12:18:36;9.00;99.90
21312;DHT22;18076;52.154;10.570;2023-04-15T12:21:08;9.10;99.90
21312;DHT22;18076;52.154;10.570;2023-04-15T12:23:39;9.10;99.90
21312;DHT22;18076;52.154;10.570;2023-04-15T12:26:04;9.10;99.90
21312;DHT22;18076;52.154;10.570;2023-04-15T12:28:33;9.10;99.90
21312;DHT22;18076;52.154;10.570;2023-04-15T12:30:58;9.20;99.90
21312;DHT22;18076;52.154;10.570;2023-04-15T12:33:31;9.20;99.90
21312;DHT22;18076;52.154;10.570;2023-04-15T12:35:57;9.20;99.90
21312;DHT22;18076;52.154;10.570;2023-04-15T12:38:22;9.20;99.90
21312;DHT22;18076;52.154;10.570;2023-04-15T12:40:48;9.30;99.90
21312;DHT22;18076;52.154;10.570;2023-04-15T12:43:14;9.30;99.90
21312;DHT22;18076;52.154;10.570;2023-04-15T12:45:42;9.30;99.90
21312;DHT22;18076;52.154;10.570;2023-04-15T12:48:08;9.40;99.90
21312;DHT22;18076;52.154;10.570;2023-04-15T12:50:36;9.50;99.90
21312;DHT22;18076;52.154;10.570;2023-04-15T12:53:05;9.40;99.90
21312;DHT22;18076;52.154;10.570;2023-04-15T12:55:30;9.40;99.90
21312;DHT22;18076;52.154;10.570;2023-04-15T12:57:56;9.40;99.90
21312;DHT22;18076;52.154;10.570;2023-04-15T13:00:21;9.40;99.90
21312;DHT22;18076;52.154;10.570;2023-04-15T13:02:48;9.40;99.90
21312;DHT22;18076;52.154;10.570;2023-04-15T13:05:13;9.40;99.90
21312;DHT22;18076;52.154;10.570;2023-04-15T13:07:40;9.50;99.90
21312;DHT22;18076;52.154;10.570;2023-04-15T13:10:06;9.50;99.90
21312;DHT22;18076;52.154;10.570;2023-04-15T13:12:34;9.50;99.90
21312;DHT22;18076;52.154;10.570;2023-04-15T13:15:01;9.60;99.90
21312;DHT22;18076;52.154;10.570;2023-04-15T13:17:27;9.60;99.90
21312;DHT22;18076;52.154;10.570;2023-04-15T13:19:52;9.70;99.90
21312;DHT22;18076;52.154;10.570;2023-04-15T13:22:18;9.70;99.90
21312;DHT22;18076;52.154;10.570;2023-04-15T13:24:43;9.80;99.90
21312;DHT22;18076;52.154;10.570;2023-04-15T13:27:09;9.80;99.90
21312;DHT22;18076;52.154;10.570;2023-04-15T13:29:35;9.80;99.90
21312;DHT22;18076;52.154;10.570;2023-04-15T13:32:00;9.70;99.90
21312;DHT22;18076;52.154;10.570;2023-04-15T13:34:26;9.80;99.90
21312;DHT22;18076;52.154;10.570;2023-04-15T13:36:51;9.90;99.90
21312;DHT22;18076;52.154;10.570;2023-04-15T13:39:17;9.80;99.90
21312;DHT22;18076;52.154;10.570;2023-04-15T13:41:42;9.80;99.90
21312;DHT22;18076;52.154;10.570;2023-04-15T13:44:08;9.80;99.90
21312;DHT22;18076;52.154;10.570;2023-04-15T13:46:34;9.80;99.90
21312;DHT22;18076;52.154;10.570;2023-04-15T13:48:59;9.80;99.90
21312;DHT22;18076;52.154;10.570;2023-04-15T13:51:25;9.80;99.90
21312;DHT22;18076;52.154;10.570;2023-04-15T13:53:51;9.90;99.90
21312;DHT22;18076;52.154;10.570;2023-04-15T13:56:16;9.90;99.90
21312;DHT22;18076;52.154;10.570;2023-04-15T13:58:42;9.90;99.90
21312;DHT22;18076;52.154;10.570;2023-04-15T14:01:07;9.90;99.90
21312;DHT22;18076;52.154;10.570;2023-04-15T14:03:33;9.90;99.90
21312;DHT22;18076;52.154;10.570;2023-04-15T14:05:59;9.90;99.90
21312;DHT22;18076;52.154;10.570;2023-04-15T14:08:25;9.90;99.90
21312;DHT22;18076;52.154;10.570;2023-04-15T14:10:51;9.90;99.90
21312;DHT22;18076;52.154;10.570;2023-04-15T14:13:16;9.90;99.90
21312;DHT22;18076;52.154;10.570;2023-04-15T14:15:43;9.90;99.90
21312;DHT22;18076;52.154;10.570;2023-04-15T14:18:09;9.90;99.90
21312;DHT22;18076;52.154;10.570;2023-04-15T14:20:34;9.90;99.90
21312;DHT22;18076;52.154;10.570;2023-04-15T14:23:00;9.90;99.90
21312;DHT22;18076;52.154;10.570;2023-04-15T14:25:26;9.90;99.90
21312;DHT22;18076;52.154;10.570;2023-04-15T14:27:51;9.90;99.90
21312;DHT22;18076;52.154;10.570;2023-04-15T14:30:20;9.90;99.90
21312;DHT22;18076;52.154;10.570;2023-04-15T14:32:45;9.90;99.90
21312;DHT22;18076;52.154;10.570;2023-04-15T14:35:11;9.90;99.90
21312;DHT22;18076;52.154;10.570;2023-04-15T14:37:36;9.90;99.90
21312;DHT22;18076;52.154;10.570;2023-04-15T14:40:02;9.80;99.90
21312;DHT22;18076;52.154;10.570;2023-04-15T14:42:28;9.90;99.90
21312;DHT22;18076;52.154;10.570;2023-04-15T14:44:53;9.90;99.90
21312;DHT22;18076;52.154;10.570;2023-04-15T14:47:19;9.90;99.90
21312;DHT22;18076;52.154;10.570;2023-04-15T14:49:44;9.90;99.90
21312;DHT22;18076;52.154;10.570;2023-04-15T14:52:11;9.90;99.90
21312;DHT22;18076;52.154;10.570;2023-04-15T14:54:36;10.00;99.90
21312;DHT22;18076;52.154;10.570;2023-04-15T14:57:02;10.00;99.90
21312;DHT22;18076;52.154;10.570;2023-04-15T14:59:27;10.00;99.90
21312;DHT22;18076;52.154;10.570;2023-04-15T15:01:53;10.00;99.90
21312;DHT22;18076;52.154;10.570;2023-04-15T15:04:19;10.00;99.90
21312;DHT22;18076;52.154;10.570;2023-04-15T15:06:44;10.00;99.90
21312;DHT22;18076;52.154;10.570;2023-04-15T15:09:10;10.00;99.90
21312;DHT22;18076;52.154;10.570;2023-04-15T15:11:36;10.00;99.90
21312;DHT22;18076;52.154;10.570;2023-04-15T15:14:01;10.00;99.90
21312;DHT22;18076;52.154;10.570;2023-04-15T15:16:27;10.00;99.90
21312;DHT22;18076;52.154;10.570;2023-04-15T15:18:53;10.10;99.90
21312;DHT22;18076;52.154;10.570;2023-04-15T15:21:19;10.10;99.90
21312;DHT22;18076;52.154;10.570;2023-04-15T15:23:44;10.10;99.90
21312;DHT22;18076;52.154;10.570;2023-04-15T15:26:10;10.10;99.90
21312;DHT22;18076;52.154;10.570;2023-04-15T15:28:36;10.10;99.90
21312;DHT22;18076;52.154;10.570;2023-04-15T15:31:01;10.10;99.90
21312;DHT22;18076;52.154;10.570;2023-04-15T15:33:28;10.10;99.90
21312;DHT22;18076;52.154;10.570;2023-04-15T15:35:54;10.20;99.90
21312;DHT22;18076;52.154;10.570;2023-04-15T15:38:20;10.20;99.90
21312;DHT22;18076;52.154;10.570;2023-04-15T15:40:46;10.20;99.90
21312;DHT22;18076;52.154;10.570;2023-04-15T15:43:12;10.20;99.90